Time;durP1;ratioP1;P1;durP2;ratioP2;P2;SDS_P1;SDS_P2;PMS_P1;PMS_P2;Temp;Humidity;BMP_temperature;BMP_pressure;BME280_temperature;BME280_humidity;BME280_pressure;Samples;Min_cycle;Max_cycle;Signal;HPM_P1;HPM_P2
2021/08/01 00:00:33;;;;;;;;;;;18.60;73.90;;;;;;5051873;28;19928;-77
2021/08/01 00:02:59;;;;;;;;;;;18.60;73.80;;;;;;5051963;28;20490;-77
2021/08/01 00:05:25;;;;;;;;;;;18.60;73.50;;;;;;5051905;28;19924;-77
2021/08/01 00:07:51;;;;;;;;;;;18.60;73.40;;;;;;5051699;28;19929;-77
2021/08/01 00:10:18;;;;;;;;;;;18.60;73.30;;;;;;5051959;28;20533;-77
2021/08/01 00:12:44;;;;;;;;;;;18.60;73.20;;;;;;5051529;28;20393;-77
2021/08/01 00:15:11;;;;;;;;;;;18.60;73.00;;;;;;5051638;28;20441;-77
2021/08/01 00:17:37;;;;;;;;;;;18.60;73.00;;;;;;5051770;28;19979;-77
2021/08/01 00:20:03;;;;;;;;;;;18.60;73.10;;;;;;5051667;28;19925;-77
2021/08/01 00:22:29;;;;;;;;;;;18.60;73.20;;;;;;5051538;28;19931;-77
2021/08/01 00:24:56;;;;;;;;;;;18.50;73.20;;;;;;5051629;28;20388;-78
2021/08/01 00:27:23;;;;;;;;;;;18.50;73.20;;;;;;5051075;28;20277;-77
2021/08/01 00:29:49;;;;;;;;;;;18.50;73.20;;;;;;5051444;28;19941;-77
2021/08/01 00:32:15;;;;;;;;;;;18.50;73.40;;;;;;5051571;28;19925;-77
2021/08/01 00:34:41;;;;;;;;;;;18.50;73.40;;;;;;5051584;28;19931;-77
2021/08/01 00:37:07;;;;;;;;;;;18.50;73.40;;;;;;5033177;28;19947;-77
2021/08/01 00:39:33;;;;;;;;;;;18.50;73.50;;;;;;5051499;28;19973;-77
2021/08/01 00:41:59;;;;;;;;;;;18.50;73.70;;;;;;5051730;28;19967;-77
2021/08/01 00:44:26;;;;;;;;;;;18.40;73.70;;;;;;5051308;28;20054;-77
2021/08/01 00:46:52;;;;;;;;;;;18.40;73.90;;;;;;5051198;28;20395;-77
2021/08/01 00:49:18;;;;;;;;;;;18.40;74.10;;;;;;5049180;28;19928;-77
2021/08/01 00:51:44;;;;;;;;;;;18.40;74.10;;;;;;5051557;28;20018;-77
2021/08/01 00:54:10;;;;;;;;;;;18.40;74.10;;;;;;5051159;28;19968;-78
2021/08/01 00:56:36;;;;;;;;;;;18.40;74.00;;;;;;5054950;28;19933;-77
2021/08/01 00:59:02;;;;;;;;;;;18.40;73.70;;;;;;5054765;28;19928;-77
2021/08/01 01:02:01;;;;;;;;;;;18.40;73.40;;;;;;5055100;28;20023;-77
2021/08/01 01:04:44;;;;;;;;;;;18.40;73.10;;;;;;5012515;28;19980;-77
2021/08/01 01:07:12;;;;;;;;;;;18.40;72.80;;;;;;5012704;28;19934;-77
2021/08/01 01:09:48;;;;;;;;;;;18.40;72.70;;;;;;5012743;28;19932;-77
2021/08/01 01:12:19;;;;;;;;;;;18.30;72.70;;;;;;5012582;28;19925;-77
2021/08/01 01:14:49;;;;;;;;;;;18.30;72.80;;;;;;5012903;28;19932;-77
2021/08/01 01:17:19;;;;;;;;;;;18.30;72.80;;;;;;5012642;28;20424;-77
2021/08/01 01:20:02;;;;;;;;;;;18.30;72.80;;;;;;5012779;28;19932;-77
2021/08/01 01:22:31;;;;;;;;;;;18.30;72.90;;;;;;5012211;28;19996;-77
2021/08/01 01:24:57;;;;;;;;;;;18.30;72.80;;;;;;4996087;28;19925;-78
2021/08/01 01:27:27;;;;;;;;;;;18.30;72.80;;;;;;5012567;28;19925;-77
2021/08/01 01:30:01;;;;;;;;;;;18.30;72.80;;;;;;5012461;28;19926;-77
2021/08/01 01:32:27;;;;;;;;;;;18.30;72.80;;;;;;5012064;28;20020;-77
2021/08/01 01:35:02;;;;;;;;;;;18.30;72.90;;;;;;5012477;28;19925;-77
2021/08/01 01:37:30;;;;;;;;;;;18.30;72.90;;;;;;5012462;28;20063;-77
2021/08/01 01:39:58;;;;;;;;;;;18.20;73.00;;;;;;5030601;28;20455;-78
2021/08/01 01:42:24;;;;;;;;;;;18.20;73.00;;;;;;5054372;28;19925;-77
2021/08/01 01:44:51;;;;;;;;;;;18.20;73.10;;;;;;5054041;28;19932;-77
2021/08/01 01:47:18;;;;;;;;;;;18.20;73.10;;;;;;5054045;28;19932;-77
2021/08/01 01:49:44;;;;;;;;;;;18.20;73.20;;;;;;5053723;28;20296;-77
2021/08/01 01:52:12;;;;;;;;;;;18.20;73.30;;;;;;5054233;28;20663;-77
2021/08/01 01:54:38;;;;;;;;;;;18.20;73.30;;;;;;5053685;28;20296;-77
2021/08/01 01:57:05;;;;;;;;;;;18.20;73.30;;;;;;5053926;28;19960;-77
2021/08/01 01:59:31;;;;;;;;;;;18.10;73.40;;;;;;5054178;28;19932;-77
2021/08/01 02:01:57;;;;;;;;;;;18.10;73.40;;;;;;5053907;28;19929;-77
2021/08/01 02:04:23;;;;;;;;;;;18.10;73.60;;;;;;5053963;28;20046;-77
2021/08/01 02:06:49;;;;;;;;;;;18.10;73.60;;;;;;5052600;28;19994;-77
2021/08/01 02:09:24;;;;;;;;;;;18.10;73.70;;;;;;5035670;28;19925;-77
2021/08/01 02:12:03;;;;;;;;;;;18.10;73.70;;;;;;5053733;28;19975;-78
2021/08/01 02:14:35;;;;;;;;;;;18.10;73.80;;;;;;5053618;28;20381;-77
2021/08/01 02:17:05;;;;;;;;;;;18.10;73.90;;;;;;5053298;28;20292;-77
2021/08/01 02:19:33;;;;;;;;;;;18.10;74.00;;;;;;5068350;28;19968;-77
2021/08/01 02:22:00;;;;;;;;;;;18.00;74.00;;;;;;5053324;28;20356;-77
2021/08/01 02:24:26;;;;;;;;;;;18.00;74.00;;;;;;5053509;28;20308;-77
2021/08/01 02:26:52;;;;;;;;;;;18.00;74.20;;;;;;5053557;28;20003;-77
2021/08/01 02:29:20;;;;;;;;;;;18.00;74.30;;;;;;5053257;28;19979;-77
2021/08/01 02:31:46;;;;;;;;;;;17.90;74.40;;;;;;5053177;28;19975;-77
2021/08/01 02:34:13;;;;;;;;;;;17.90;74.50;;;;;;5053021;28;19924;-77
2021/08/01 02:36:39;;;;;;;;;;;17.90;74.70;;;;;;5047116;28;20015;-77
2021/08/01 02:39:06;;;;;;;;;;;17.80;75.00;;;;;;5053014;28;20404;-77
2021/08/01 02:41:37;;;;;;;;;;;17.80;75.20;;;;;;5053337;28;20405;-77
2021/08/01 02:44:09;;;;;;;;;;;17.70;75.30;;;;;;5053141;28;19924;-77
2021/08/01 02:46:37;;;;;;;;;;;17.70;75.40;;;;;;5053218;28;19925;-77
2021/08/01 02:49:04;;;;;;;;;;;17.70;75.80;;;;;;5052943;28;19932;-77
2021/08/01 02:51:32;;;;;;;;;;;17.60;75.80;;;;;;5035248;28;19929;-77
2021/08/01 02:53:59;;;;;;;;;;;17.60;76.00;;;;;;5052728;28;19956;-77
2021/08/01 02:56:28;;;;;;;;;;;17.60;76.10;;;;;;5052717;28;19924;-77
2021/08/01 02:58:55;;;;;;;;;;;17.60;76.20;;;;;;5049668;28;19925;-77
2021/08/01 03:01:21;;;;;;;;;;;17.60;76.20;;;;;;5052998;28;19924;-78
2021/08/01 03:03:52;;;;;;;;;;;17.60;76.40;;;;;;5052282;28;19929;-77
2021/08/01 03:06:32;;;;;;;;;;;17.60;76.40;;;;;;5052369;28;19951;-77
2021/08/01 03:09:05;;;;;;;;;;;17.60;76.40;;;;;;5026637;28;19925;-77
2021/08/01 03:11:38;;;;;;;;;;;17.50;76.50;;;;;;5052407;28;20475;-77
2021/08/01 03:14:12;;;;;;;;;;;17.50;77.40;;;;;;5052788;28;20008;-77
2021/08/01 03:16:44;;;;;;;;;;;17.50;76.40;;;;;;5052639;28;19925;-77
2021/08/01 03:19:16;;;;;;;;;;;17.50;76.50;;;;;;5035197;28;20388;-77
2021/08/01 03:21:48;;;;;;;;;;;17.50;76.50;;;;;;5013789;28;20130;-77
2021/08/01 03:24:21;;;;;;;;;;;17.40;76.50;;;;;;5039305;28;19924;-77
2021/08/01 03:26:51;;;;;;;;;;;17.40;76.40;;;;;;5052589;28;20011;-77
2021/08/01 03:29:24;;;;;;;;;;;17.40;76.60;;;;;;5052177;28;19935;-77
2021/08/01 03:31:56;;;;;;;;;;;17.30;76.70;;;;;;5052575;28;19929;-77
2021/08/01 03:34:26;;;;;;;;;;;17.30;76.80;;;;;;5051762;28;20307;-77
2021/08/01 03:36:54;;;;;;;;;;;17.30;77.00;;;;;;5043054;28;19925;-77
2021/08/01 03:39:20;;;;;;;;;;;17.30;77.10;;;;;;5052333;28;19932;-77
2021/08/01 03:41:48;;;;;;;;;;;17.30;77.70;;;;;;5052221;28;19929;-77
2021/08/01 03:44:17;;;;;;;;;;;17.20;77.20;;;;;;5050836;28;19924;-77
2021/08/01 03:46:44;;;;;;;;;;;17.20;77.30;;;;;;5052216;28;19928;-77
2021/08/01 03:49:12;;;;;;;;;;;17.20;77.40;;;;;;5051877;28;19925;-77
2021/08/01 03:51:40;;;;;;;;;;;17.20;77.40;;;;;;5050831;28;20404;-77
2021/08/01 03:54:09;;;;;;;;;;;17.10;77.30;;;;;;5051946;28;20024;-77
2021/08/01 03:56:43;;;;;;;;;;;17.10;77.20;;;;;;5052300;28;20024;-77
2021/08/01 03:59:10;;;;;;;;;;;17.10;77.20;;;;;;5063791;28;19999;-77
2021/08/01 04:01:37;;;;;;;;;;;17.10;77.20;;;;;;5051749;28;20378;-77
2021/08/01 04:04:03;;;;;;;;;;;17.00;77.20;;;;;;5051767;28;19932;-77
2021/08/01 04:06:30;;;;;;;;;;;17.00;77.20;;;;;;5051920;28;19980;-77
2021/08/01 04:08:56;;;;;;;;;;;17.00;77.20;;;;;;5051514;28;19932;-77
2021/08/01 04:11:22;;;;;;;;;;;17.00;77.20;;;;;;5052170;28;19964;-77
2021/08/01 04:13:49;;;;;;;;;;;17.00;77.20;;;;;;5051774;28;19936;-77
2021/08/01 04:16:15;;;;;;;;;;;17.00;77.20;;;;;;5038193;28;19932;-77
2021/08/01 04:18:41;;;;;;;;;;;16.90;77.20;;;;;;5047299;28;20003;-77
2021/08/01 04:21:08;;;;;;;;;;;16.90;77.40;;;;;;5051580;28;19925;-77
2021/08/01 04:23:35;;;;;;;;;;;16.90;77.40;;;;;;5051707;28;19925;-78
2021/08/01 04:26:02;;;;;;;;;;;16.90;77.50;;;;;;5051871;28;19925;-77
2021/08/01 04:28:28;;;;;;;;;;;16.80;77.40;;;;;;5051535;28;19979;-77
2021/08/01 04:30:54;;;;;;;;;;;16.80;77.40;;;;;;5054329;28;19931;-77
2021/08/01 04:33:20;;;;;;;;;;;16.80;78.40;;;;;;5055613;28;20458;-77
2021/08/01 04:35:46;;;;;;;;;;;16.80;77.40;;;;;;5048908;28;20062;-77
2021/08/01 04:38:13;;;;;;;;;;;16.80;77.40;;;;;;5052767;28;19932;-77
2021/08/01 04:40:39;;;;;;;;;;;16.80;77.40;;;;;;5055206;28;20017;-77
2021/08/01 04:43:05;;;;;;;;;;;16.70;77.30;;;;;;5055523;28;19924;-77
2021/08/01 04:45:31;;;;;;;;;;;16.70;77.40;;;;;;5054242;28;20059;-77
2021/08/01 04:47:57;;;;;;;;;;;16.70;77.50;;;;;;5051180;28;19925;-77
2021/08/01 04:50:23;;;;;;;;;;;16.70;77.50;;;;;;5055230;28;19960;-77
2021/08/01 04:52:51;;;;;;;;;;;16.70;77.50;;;;;;5055193;28;19989;-77
2021/08/01 04:55:17;;;;;;;;;;;16.70;77.50;;;;;;5055369;28;19925;-77
2021/08/01 04:57:43;;;;;;;;;;;16.60;77.40;;;;;;5055054;28;20054;-77
2021/08/01 05:00:10;;;;;;;;;;;16.60;77.50;;;;;;5054895;28;20388;-77
2021/08/01 05:02:36;;;;;;;;;;;16.60;77.50;;;;;;5054889;28;19928;-77
2021/08/01 05:05:03;;;;;;;;;;;16.60;77.40;;;;;;5045425;28;20303;-77
2021/08/01 05:07:30;;;;;;;;;;;16.60;78.30;;;;;;5050039;28;19932;-77
2021/08/01 05:09:56;;;;;;;;;;;16.60;77.40;;;;;;5054926;28;19995;-77
2021/08/01 05:12:22;;;;;;;;;;;16.60;77.30;;;;;;5054585;28;19925;-77
2021/08/01 05:14:49;;;;;;;;;;;16.60;77.20;;;;;;5054975;28;20018;-77
2021/08/01 05:17:15;;;;;;;;;;;16.50;77.20;;;;;;5054209;28;20399;-77
2021/08/01 05:19:42;;;;;;;;;;;16.50;77.20;;;;;;5055077;28;20392;-77
2021/08/01 05:22:08;;;;;;;;;;;16.50;77.20;;;;;;5054162;28;19986;-77
2021/08/01 05:24:39;;;;;;;;;;;16.50;77.20;;;;;;5054731;28;19924;-77
2021/08/01 05:27:05;;;;;;;;;;;16.50;77.20;;;;;;5052822;28;19950;-77
2021/08/01 05:29:31;;;;;;;;;;;16.50;77.10;;;;;;5054185;28;19978;-77
2021/08/01 05:31:57;;;;;;;;;;;16.50;77.20;;;;;;5054222;28;19925;-77
2021/08/01 05:34:23;;;;;;;;;;;16.50;77.20;;;;;;5054456;28;19964;-77
2021/08/01 05:36:49;;;;;;;;;;;16.50;77.30;;;;;;5034942;28;20378;-77
2021/08/01 05:39:16;;;;;;;;;;;16.50;77.20;;;;;;5054353;28;19931;-77
2021/08/01 05:41:42;;;;;;;;;;;16.50;77.00;;;;;;5054278;28;20462;-77
2021/08/01 05:44:08;;;;;;;;;;;16.50;76.90;;;;;;5054241;28;20454;-77
2021/08/01 05:46:34;;;;;;;;;;;16.60;76.80;;;;;;5047110;28;19963;-77
2021/08/01 05:49:00;;;;;;;;;;;16.60;76.80;;;;;;5052815;28;19936;-77
2021/08/01 05:51:26;;;;;;;;;;;16.60;76.70;;;;;;5053218;28;20013;-77
2021/08/01 05:53:52;;;;;;;;;;;16.60;76.70;;;;;;5053263;28;19968;-77
2021/08/01 05:56:18;;;;;;;;;;;16.60;76.50;;;;;;5053118;28;20015;-77
2021/08/01 05:58:45;;;;;;;;;;;16.60;76.20;;;;;;5053230;28;20345;-77
2021/08/01 06:01:11;;;;;;;;;;;16.60;76.10;;;;;;5053100;28;20007;-77
2021/08/01 06:03:37;;;;;;;;;;;16.70;76.10;;;;;;5053411;28;19975;-77
2021/08/01 06:06:14;;;;;;;;;;;16.70;76.00;;;;;;5053370;28;19924;-77
2021/08/01 06:08:40;;;;;;;;;;;16.70;76.20;;;;;;5053195;28;19979;-78
2021/08/01 06:11:07;;;;;;;;;;;16.70;76.20;;;;;;5053228;28;20381;-77
2021/08/01 06:13:34;;;;;;;;;;;16.80;76.20;;;;;;5052936;28;19965;-77
2021/08/01 06:16:00;;;;;;;;;;;16.80;76.20;;;;;;5053062;28;20413;-77
2021/08/01 06:18:27;;;;;;;;;;;16.80;76.00;;;;;;5049835;28;20010;-77
2021/08/01 06:21:09;;;;;;;;;;;16.80;75.90;;;;;;5050592;28;19975;-77
2021/08/01 06:23:36;;;;;;;;;;;16.90;75.80;;;;;;5050768;28;19974;-77
2021/08/01 06:26:03;;;;;;;;;;;16.90;75.80;;;;;;5047652;28;19925;-77
2021/08/01 06:28:31;;;;;;;;;;;17.00;75.90;;;;;;5051617;28;20316;-77
2021/08/01 06:30:58;;;;;;;;;;;17.00;75.80;;;;;;5050745;28;19925;-77
2021/08/01 06:33:24;;;;;;;;;;;17.00;75.80;;;;;;5050265;28;20018;-77
2021/08/01 06:35:50;;;;;;;;;;;17.00;75.70;;;;;;5049543;28;19936;-77
2021/08/01 06:38:16;;;;;;;;;;;17.10;75.80;;;;;;5044106;28;19968;-77
2021/08/01 06:40:42;;;;;;;;;;;17.10;75.80;;;;;;5049999;28;20001;-81
2021/08/01 06:43:08;;;;;;;;;;;17.10;75.80;;;;;;5044147;28;19929;-77
2021/08/01 06:45:34;;;;;;;;;;;17.10;75.70;;;;;;5042922;28;19975;-77
2021/08/01 06:48:01;;;;;;;;;;;17.20;75.70;;;;;;5046265;28;19925;-77
2021/08/01 06:50:27;;;;;;;;;;;17.20;75.50;;;;;;5050525;28;19925;-77
2021/08/01 06:52:53;;;;;;;;;;;17.30;75.50;;;;;;5047461;28;20015;-77
2021/08/01 06:55:19;;;;;;;;;;;17.40;75.20;;;;;;5051129;28;19925;-78
2021/08/01 06:57:46;;;;;;;;;;;17.50;74.90;;;;;;5038540;28;19929;-78
2021/08/01 07:00:13;;;;;;;;;;;17.50;74.60;;;;;;5058065;28;19983;-77
2021/08/01 07:02:39;;;;;;;;;;;17.60;74.40;;;;;;5049057;28;19971;-77
2021/08/01 07:05:06;;;;;;;;;;;17.70;74.10;;;;;;5049590;28;19987;-78
2021/08/01 07:07:32;;;;;;;;;;;17.80;74.00;;;;;;5050028;28;20348;-78
2021/08/01 07:09:59;;;;;;;;;;;17.90;73.80;;;;;;5052516;28;20291;-78
2021/08/01 07:12:25;;;;;;;;;;;18.00;73.60;;;;;;5051310;28;20361;-78
2021/08/01 07:14:51;;;;;;;;;;;18.10;73.50;;;;;;5052456;28;19929;-78
2021/08/01 07:17:21;;;;;;;;;;;18.20;73.00;;;;;;5051679;28;19933;-78
2021/08/01 07:19:50;;;;;;;;;;;18.30;72.80;;;;;;5051226;28;20414;-78
2021/08/01 07:22:17;;;;;;;;;;;18.40;72.60;;;;;;5050640;28;19925;-79
2021/08/01 07:24:43;;;;;;;;;;;18.50;72.20;;;;;;5051436;28;20033;-77
2021/08/01 07:27:09;;;;;;;;;;;18.60;71.80;;;;;;5051322;28;19968;-77
2021/08/01 07:29:36;;;;;;;;;;;18.60;71.80;;;;;;5051378;28;19937;-77
2021/08/01 07:32:02;;;;;;;;;;;18.80;71.30;;;;;;5051544;28;20019;-77
2021/08/01 07:34:28;;;;;;;;;;;19.00;70.80;;;;;;5051768;28;20321;-77
2021/08/01 07:36:54;;;;;;;;;;;19.20;70.20;;;;;;5051327;28;19936;-77
2021/08/01 07:39:20;;;;;;;;;;;19.40;69.30;;;;;;5051099;28;19939;-77
2021/08/01 07:41:46;;;;;;;;;;;19.70;68.80;;;;;;5051110;28;19925;-77
2021/08/01 07:44:12;;;;;;;;;;;19.90;68.10;;;;;;5050530;28;19936;-77
2021/08/01 07:46:39;;;;;;;;;;;20.20;67.70;;;;;;5026751;28;19983;-78
2021/08/01 07:49:05;;;;;;;;;;;20.60;66.50;;;;;;5050594;28;20021;-78
2021/08/01 07:51:31;;;;;;;;;;;21.00;65.70;;;;;;5050662;28;19929;-78
2021/08/01 07:53:57;;;;;;;;;;;21.40;64.80;;;;;;5050643;28;19924;-82
2021/08/01 07:56:23;;;;;;;;;;;21.80;62.70;;;;;;5050144;28;20027;-80
2021/08/01 07:58:49;;;;;;;;;;;21.90;62.10;;;;;;5050593;28;19932;-77
2021/08/01 08:01:15;;;;;;;;;;;22.20;62.00;;;;;;5050787;28;19975;-79
2021/08/01 08:03:42;;;;;;;;;;;22.40;61.00;;;;;;5050087;28;19960;-77
2021/08/01 08:06:09;;;;;;;;;;;22.50;60.20;;;;;;5053769;28;20000;-78
2021/08/01 08:08:35;;;;;;;;;;;22.60;59.80;;;;;;5054923;28;20008;-78
2021/08/01 08:11:01;;;;;;;;;;;22.80;59.50;;;;;;5054820;28;20015;-78
2021/08/01 08:13:27;;;;;;;;;;;22.90;58.50;;;;;;5055299;28;20399;-77
2021/08/01 08:15:55;;;;;;;;;;;22.90;58.30;;;;;;5055000;28;20059;-86
2021/08/01 08:18:21;;;;;;;;;;;22.90;58.20;;;;;;5054806;28;19924;-85
2021/08/01 08:20:47;;;;;;;;;;;22.90;58.00;;;;;;5054912;28;19925;-81
2021/08/01 08:23:16;;;;;;;;;;;22.60;58.10;;;;;;5055107;28;19932;-77
2021/08/01 08:25:42;;;;;;;;;;;22.60;58.60;;;;;;5037400;28;19925;-78
2021/08/01 08:28:08;;;;;;;;;;;22.60;58.20;;;;;;5055261;28;20037;-77
2021/08/01 08:30:35;;;;;;;;;;;22.40;58.20;;;;;;5054841;28;19928;-77
2021/08/01 08:33:01;;;;;;;;;;;22.50;58.80;;;;;;5055147;28;19929;-78
2021/08/01 08:35:27;;;;;;;;;;;22.60;59.10;;;;;;5055074;28;19932;-77
2021/08/01 08:37:53;;;;;;;;;;;22.70;58.60;;;;;;5054127;28;19925;-80
2021/08/01 08:40:21;;;;;;;;;;;22.50;57.90;;;;;;5054950;28;20301;-78
2021/08/01 08:42:48;;;;;;;;;;;22.30;58.10;;;;;;5054508;28;20295;-81
2021/08/01 08:45:15;;;;;;;;;;;22.00;58.40;;;;;;5054844;28;19970;-78
2021/08/01 08:47:45;;;;;;;;;;;21.90;59.30;;;;;;5054749;28;20418;-78
2021/08/01 08:50:16;;;;;;;;;;;22.30;60.40;;;;;;5054264;28;19935;-79
2021/08/01 08:52:44;;;;;;;;;;;22.90;58.90;;;;;;5054481;28;20067;-80
2021/08/01 08:55:14;;;;;;;;;;;23.00;57.30;;;;;;5054324;28;19936;-80
2021/08/01 08:57:48;;;;;;;;;;;22.90;56.10;;;;;;5054789;28;20007;-78
2021/08/01 09:00:15;;;;;;;;;;;23.10;56.40;;;;;;5054667;28;20340;-78
2021/08/01 09:02:42;;;;;;;;;;;23.60;56.30;;;;;;5054916;28;19936;-81
2021/08/01 09:05:08;;;;;;;;;;;24.10;55.20;;;;;;5054498;28;20006;-79
2021/08/01 09:07:35;;;;;;;;;;;24.40;54.30;;;;;;5054362;28;20006;-82
2021/08/01 09:10:02;;;;;;;;;;;24.80;53.00;;;;;;5054281;28;19924;-79
2021/08/01 09:12:28;;;;;;;;;;;25.10;52.40;;;;;;5053553;28;19928;-80
2021/08/01 09:15:13;;;;;;;;;;;25.70;52.20;;;;;;5054493;28;19925;-80
2021/08/01 09:17:40;;;;;;;;;;;26.40;51.20;;;;;;5054215;28;19925;-81
2021/08/01 09:20:20;;;;;;;;;;;26.90;49.10;;;;;;5069383;28;20455;-82
2021/08/01 09:23:12;;;;;;;;;;;27.20;48.40;;;;;;5045000;28;19925;-81
2021/08/01 09:25:40;;;;;;;;;;;27.20;46.70;;;;;;5042190;28;19948;-79
2021/08/01 09:28:09;;;;;;;;;;;26.80;46.60;;;;;;5046467;28;20420;-85
2021/08/01 09:30:55;;;;;;;;;;;26.20;47.30;;;;;;5026482;28;19924;-81
2021/08/01 09:33:36;;;;;;;;;;;25.50;47.80;;;;;;5053243;28;19939;-80
2021/08/01 09:36:09;;;;;;;;;;;25.60;48.90;;;;;;5053246;28;20398;-78
2021/08/01 09:38:42;;;;;;;;;;;26.30;49.30;;;;;;5052504;28;19935;-81
2021/08/01 09:41:08;;;;;;;;;;;27.10;47.70;;;;;;5053015;28;21227;-80
2021/08/01 09:43:42;;;;;;;;;;;27.20;45.00;;;;;;5050355;28;19929;-82
2021/08/01 09:46:08;;;;;;;;;;;27.30;43.90;;;;;;5053043;28;19987;-81
2021/08/01 09:48:34;;;;;;;;;;;27.80;44.40;;;;;;5050274;28;19925;-79
2021/08/01 09:51:04;;;;;;;;;;;28.10;43.20;;;;;;5048790;28;19925;-78
2021/08/01 09:53:31;;;;;;;;;;;28.60;43.30;;;;;;5051876;28;19971;-78
2021/08/01 09:56:10;;;;;;;;;;;29.10;43.10;;;;;;5049523;28;20030;-78
2021/08/01 09:58:36;;;;;;;;;;;29.40;41.90;;;;;;5034741;28;20063;-82
2021/08/01 10:01:03;;;;;;;;;;;29.10;41.30;;;;;;5053232;28;20063;-82
2021/08/01 10:03:35;;;;;;;;;;;28.90;40.80;;;;;;5046210;28;19929;-81
2021/08/01 10:06:07;;;;;;;;;;;28.80;41.70;;;;;;5044356;28;20480;-80
2021/08/01 10:08:39;;;;;;;;;;;28.50;41.40;;;;;;5052019;28;20011;-80
2021/08/01 10:11:09;;;;;;;;;;;28.00;41.80;;;;;;5053061;28;20016;-81
2021/08/01 10:13:36;;;;;;;;;;;27.50;42.80;;;;;;5034537;28;19975;-81
2021/08/01 10:16:03;;;;;;;;;;;27.10;43.80;;;;;;5052645;28;20068;-81
2021/08/01 10:18:29;;;;;;;;;;;26.60;44.50;;;;;;5052110;28;19940;-81
2021/08/01 10:20:55;;;;;;;;;;;26.10;45.40;;;;;;5051211;28;20400;-81
2021/08/01 10:23:23;;;;;;;;;;;25.60;46.50;;;;;;5051418;28;19924;-81
2021/08/01 10:25:50;;;;;;;;;;;25.20;48.60;;;;;;5051705;28;19972;-80
2021/08/01 10:28:22;;;;;;;;;;;24.80;48.80;;;;;;5050783;28;19990;-80
2021/08/01 10:30:50;;;;;;;;;;;24.60;49.00;;;;;;5051626;28;19925;-80
2021/08/01 10:33:22;;;;;;;;;;;24.50;49.60;;;;;;5052239;28;19925;-80
2021/08/01 10:35:56;;;;;;;;;;;24.50;50.50;;;;;;5052041;28;19972;-79
2021/08/01 10:38:23;;;;;;;;;;;24.50;50.10;;;;;;5048200;28;20316;-79
2021/08/01 10:40:54;;;;;;;;;;;24.50;49.20;;;;;;5052305;28;19967;-79
2021/08/01 10:43:24;;;;;;;;;;;24.20;50.20;;;;;;5052061;28;20380;-79
2021/08/01 10:45:51;;;;;;;;;;;24.00;50.50;;;;;;5051908;28;19928;-79
2021/08/01 10:48:21;;;;;;;;;;;23.60;50.60;;;;;;5052751;28;20376;-80
2021/08/01 10:50:48;;;;;;;;;;;23.40;51.30;;;;;;5065728;28;19963;-81
2021/08/01 10:53:20;;;;;;;;;;;23.10;52.10;;;;;;5039474;28;20439;-79
2021/08/01 10:55:47;;;;;;;;;;;22.80;52.50;;;;;;5051925;28;20015;-79
2021/08/01 10:58:14;;;;;;;;;;;22.60;52.90;;;;;;5052478;28;20313;-78
2021/08/01 11:00:59;;;;;;;;;;;22.40;53.70;;;;;;5053059;28;20013;-79
2021/08/01 11:03:25;;;;;;;;;;;22.20;54.30;;;;;;5052757;28;19932;-78
2021/08/01 11:05:52;;;;;;;;;;;22.00;55.00;;;;;;5052170;28;19928;-79
2021/08/01 11:08:18;;;;;;;;;;;21.90;55.50;;;;;;5051835;28;19931;-79
2021/08/01 11:10:44;;;;;;;;;;;21.80;57.50;;;;;;5049351;28;19983;-79
2021/08/01 11:13:29;;;;;;;;;;;21.70;57.20;;;;;;5050525;28;20384;-79
2021/08/01 11:15:57;;;;;;;;;;;21.50;57.80;;;;;;5051241;28;20444;-80
2021/08/01 11:18:35;;;;;;;;;;;21.50;58.20;;;;;;5051942;28;20435;-80
2021/08/01 11:21:06;;;;;;;;;;;21.50;58.50;;;;;;5051561;28;20199;-81
2021/08/01 11:23:44;;;;;;;;;;;21.50;58.70;;;;;;5051932;28;19974;-79
2021/08/01 11:26:14;;;;;;;;;;;21.60;58.60;;;;;;5052544;28;19952;-77
2021/08/01 11:28:41;;;;;;;;;;;21.60;58.40;;;;;;5052020;28;19925;-81
2021/08/01 11:31:10;;;;;;;;;;;21.60;57.90;;;;;;5050160;28;19928;-80
2021/08/01 11:33:39;;;;;;;;;;;21.50;57.60;;;;;;5051705;28;20403;-80
2021/08/01 11:36:12;;;;;;;;;;;21.50;57.60;;;;;;5051656;28;20396;-78
2021/08/01 11:38:39;;;;;;;;;;;21.50;57.60;;;;;;5051188;28;19931;-81
2021/08/01 11:41:05;;;;;;;;;;;21.60;57.70;;;;;;5052008;28;19987;-84
2021/08/01 11:43:32;;;;;;;;;;;21.60;58.20;;;;;;5051554;28;20384;-83
2021/08/01 11:45:59;;;;;;;;;;;21.70;58.00;;;;;;5051976;28;20015;-80
2021/08/01 11:48:26;;;;;;;;;;;21.80;57.60;;;;;;5051761;28;19924;-81
2021/08/01 11:50:55;;;;;;;;;;;21.90;57.80;;;;;;5040827;28;19976;-79
2021/08/01 11:53:21;;;;;;;;;;;21.90;57.30;;;;;;5050620;28;19968;-82
2021/08/01 11:55:49;;;;;;;;;;;22.00;56.70;;;;;;5046232;28;19935;-81
2021/08/01 11:58:15;;;;;;;;;;;22.00;56.50;;;;;;5048463;28;20392;-81
2021/08/01 12:00:42;;;;;;;;;;;22.00;56.70;;;;;;5051618;28;20050;-82
2021/08/01 12:03:08;;;;;;;;;;;22.00;57.00;;;;;;5051778;28;19933;-82
2021/08/01 12:05:40;;;;;;;;;;;22.00;56.30;;;;;;5051714;28;19974;-82
2021/08/01 12:08:06;;;;;;;;;;;22.00;56.40;;;;;;5051213;28;19983;-82
2021/08/01 12:10:32;;;;;;;;;;;22.00;56.60;;;;;;5040559;28;19932;-81
2021/08/01 12:13:07;;;;;;;;;;;22.00;56.60;;;;;;5047216;28;19968;-81
2021/08/01 12:15:36;;;;;;;;;;;22.00;56.00;;;;;;5049905;28;19928;-82
2021/08/01 12:18:02;;;;;;;;;;;22.00;54.90;;;;;;5050395;28;19924;-82
2021/08/01 12:20:32;;;;;;;;;;;22.00;54.80;;;;;;5049536;28;19971;-81
2021/08/01 12:22:59;;;;;;;;;;;22.00;55.20;;;;;;5048798;28;20299;-84
2021/08/01 12:25:26;;;;;;;;;;;22.00;55.90;;;;;;5051468;28;19971;-82
2021/08/01 12:27:52;;;;;;;;;;;22.00;56.20;;;;;;5051280;28;19929;-82
2021/08/01 12:30:19;;;;;;;;;;;22.10;56.20;;;;;;5051009;28;19925;-82
2021/08/01 12:32:46;;;;;;;;;;;22.10;55.90;;;;;;5051060;28;19924;-82
2021/08/01 12:35:23;;;;;;;;;;;22.10;55.20;;;;;;5051311;28;20015;-82
2021/08/01 12:38:02;;;;;;;;;;;22.20;55.30;;;;;;5022062;28;19929;-80
2021/08/01 12:40:36;;;;;;;;;;;22.30;54.80;;;;;;5045320;28;20058;-80
2021/08/01 12:43:08;;;;;;;;;;;22.30;54.10;;;;;;5033251;28;19925;-80
2021/08/01 12:45:38;;;;;;;;;;;22.30;54.10;;;;;;5034084;28;20322;-79
2021/08/01 12:48:26;;;;;;;;;;;22.40;54.30;;;;;;5041709;28;20376;-81
2021/08/01 12:50:55;;;;;;;;;;;22.50;54.10;;;;;;5049105;28;20446;-79
2021/08/01 12:53:22;;;;;;;;;;;22.60;54.40;;;;;;5047047;28;19932;-78
2021/08/01 12:56:07;;;;;;;;;;;22.70;53.40;;;;;;5047350;28;20310;-80
2021/08/01 12:58:34;;;;;;;;;;;22.80;53.30;;;;;;5051742;28;19952;-79
2021/08/01 13:01:02;;;;;;;;;;;22.80;52.70;;;;;;5052767;28;19983;-80
2021/08/01 13:03:42;;;;;;;;;;;22.90;52.80;;;;;;5054002;28;19983;-79
2021/08/01 13:06:17;;;;;;;;;;;22.80;52.10;;;;;;5055351;28;19928;-80
2021/08/01 13:08:44;;;;;;;;;;;22.80;52.90;;;;;;5054461;28;20058;-81
2021/08/01 13:11:11;;;;;;;;;;;22.70;52.90;;;;;;5054905;28;20011;-80
2021/08/01 13:13:54;;;;;;;;;;;22.60;53.30;;;;;;5052629;28;20391;-81
2021/08/01 13:16:21;;;;;;;;;;;22.60;53.40;;;;;;5039279;28;19936;-80
2021/08/01 13:18:47;;;;;;;;;;;22.60;53.60;;;;;;5053454;28;20454;-80
2021/08/01 13:21:18;;;;;;;;;;;22.50;53.60;;;;;;5054582;28;19956;-80
2021/08/01 13:23:46;;;;;;;;;;;22.50;53.90;;;;;;5052398;28;19932;-81
2021/08/01 13:26:16;;;;;;;;;;;22.40;53.80;;;;;;5050651;28;20292;-81
2021/08/01 13:28:49;;;;;;;;;;;22.30;53.90;;;;;;5053388;28;19925;-79
2021/08/01 13:31:17;;;;;;;;;;;22.10;54.20;;;;;;5039407;28;20033;-81
2021/08/01 13:34:21;;;;;;;;;;;22.00;54.50;;;;;;5045593;28;20024;-82
2021/08/01 13:36:49;;;;;;;;;;;21.90;54.80;;;;;;5040829;28;19961;-81
2021/08/01 13:39:17;;;;;;;;;;;21.80;55.20;;;;;;5034532;28;20403;-82
2021/08/01 13:41:54;;;;;;;;;;;21.70;55.40;;;;;;5042472;28;20419;-82
2021/08/01 13:44:20;;;;;;;;;;;21.60;55.80;;;;;;5044734;28;19932;-79
2021/08/01 13:47:06;;;;;;;;;;;21.60;56.40;;;;;;5017034;28;20432;-82
2021/08/01 13:49:32;;;;;;;;;;;21.50;58.00;;;;;;5042083;28;19925;-81
2021/08/01 13:51:58;;;;;;;;;;;21.50;59.20;;;;;;5026275;28;20336;-83
2021/08/01 13:54:24;;;;;;;;;;;21.50;59.70;;;;;;5031601;28;19986;-82
2021/08/01 13:56:50;;;;;;;;;;;21.50;59.90;;;;;;5043391;28;20007;-80
2021/08/01 13:59:16;;;;;;;;;;;21.50;59.90;;;;;;5031777;28;20052;-81
2021/08/01 14:01:43;;;;;;;;;;;21.50;60.40;;;;;;5027699;28;20447;-81
2021/08/01 14:04:10;;;;;;;;;;;21.50;60.40;;;;;;5031178;28;19925;-81
2021/08/01 14:06:37;;;;;;;;;;;21.50;60.60;;;;;;5028281;28;19977;-80
2021/08/01 14:09:03;;;;;;;;;;;21.40;60.50;;;;;;5045641;28;19975;-80
2021/08/01 14:11:30;;;;;;;;;;;21.40;60.40;;;;;;5049312;28;19928;-81
2021/08/01 14:13:56;;;;;;;;;;;21.40;59.90;;;;;;5048174;28;20008;-79
2021/08/01 14:16:23;;;;;;;;;;;21.40;59.90;;;;;;5048574;28;20369;-78
2021/08/01 14:18:49;;;;;;;;;;;21.40;60.10;;;;;;5045655;28;19971;-82
2021/08/01 14:21:15;;;;;;;;;;;21.40;60.20;;;;;;5043027;28;20407;-81
2021/08/01 14:23:41;;;;;;;;;;;21.30;60.10;;;;;;5049964;28;19925;-82